Time;durP1;ratioP1;P1;durP2;ratioP2;P2;SDS_P1;SDS_P2;PMS_P1;PMS_P2;Temp;Humidity;BMP_temperature;BMP_pressure;BME280_temperature;BME280_humidity;BME280_pressure;Samples;Min_cycle;Max_cycle;Signal;HPM_P1;HPM_P2
2021/12/08 00:01:55;;;;;;;23.48;16.00;;;;;;;1.36;66.98;98754.41;5108638;28;20044;-67
2021/12/08 00:04:27;;;;;;;21.98;14.77;;;;;;;1.36;66.98;98596.00;5108885;28;20089;-67
2021/12/08 00:07:00;;;;;;;21.23;14.45;;;;;;;1.34;67.12;98595.19;5108487;28;20047;-67
2021/12/08 00:09:47;;;;;;;20.73;13.30;;;;;;;1.36;66.97;98587.31;5108447;28;20044;-66
2021/12/08 00:15:09;;;;;;;23.10;16.25;;;;;;;-0.76;67.04;98236.41;5107515;28;20344;-67
2021/12/08 00:17:41;;;;;;;21.83;13.38;;;;;;;1.03;67.17;98532.59;5108952;28;20310;-67
2021/12/08 00:20:11;;;;;;;18.65;13.73;;;;;;;1.26;67.40;98584.97;5108442;28;20044;-67
2021/12/08 00:22:40;;;;;;;22.38;15.73;;;;;;;1.20;67.48;98586.91;5108518;28;20032;-66
2021/12/08 00:25:10;;;;;;;22.05;13.65;;;;;;;1.21;67.52;98583.41;5108211;28;20040;-67
2021/12/08 00:27:40;;;;;;;21.75;14.80;;;;;;;0.83;67.57;98514.94;5108430;28;20044;-67
2021/12/08 00:30:10;;;;;;;24.63;14.98;;;;;;;1.14;67.61;98564.47;5108026;28;20040;-67
2021/12/08 00:32:42;;;;;;;24.70;15.20;;;;;;;1.11;67.63;98566.31;5108563;28;20031;-67
2021/12/08 00:35:11;;;;;;;21.08;14.15;;;;;;;1.11;67.76;98571.53;5107954;28;20040;-67
2021/12/08 00:37:41;;;;;;;22.17;15.07;;;;;;;1.07;67.75;98569.91;5108122;28;20028;-67
2021/12/08 00:40:14;;;;;;;19.95;14.55;;;;;;;-3.56;67.78;97795.38;5107342;28;20028;-67
2021/12/08 00:42:47;;;;;;;26.30;16.63;;;;;;;1.03;67.95;98569.13;5107796;28;20035;-66
2021/12/08 00:45:17;;;;;;;24.42;15.60;;;;;;;0.99;68.01;98569.28;5107750;28;20063;-67
2021/12/08 00:47:48;;;;;;;24.02;15.23;;;;;;;1.00;68.11;98552.72;5107710;28;20086;-67
2021/12/08 00:50:18;;;;;;;24.70;16.88;;;;;;;1.01;67.99;98564.88;5108063;28;20052;-67
2021/12/08 00:52:47;;;;;;;21.92;14.93;;;;;;;0.96;68.27;98545.88;5107430;28;20052;-67
2021/12/08 00:55:17;;;;;;;26.48;17.30;;;;;;;-3.38;68.07;97833.81;5107818;28;20028;-67
2021/12/08 00:57:47;;;;;;;25.67;16.88;;;;;;;0.84;68.55;98552.31;5107479;28;20040;-67
2021/12/08 01:00:20;;;;;;;27.67;15.75;;;;;;;-0.87;68.41;98254.06;5107167;28;20031;-66
2021/12/08 01:02:54;;;;;;;24.75;16.90;;;;;;;0.87;68.49;98545.25;5107356;28;20040;-67
2021/12/08 01:05:29;;;;;;;23.88;15.27;;;;;;;0.84;68.80;98545.34;5107403;28;20040;-67
2021/12/08 01:08:01;;;;;;;;;;;;;;;0.80;69.06;98538.50;5108126;28;20292;-66
2021/12/08 01:10:35;;;;;;;21.67;15.50;;;;;;;0.83;69.02;98541.03;5107464;28;19942;-67
2021/12/08 01:13:10;;;;;;;25.38;15.85;;;;;;;0.87;68.78;98539.19;5106839;28;20059;-67
2021/12/08 01:15:49;;;;;;;23.45;14.82;;;;;;;0.89;69.13;98543.44;5107402;28;20044;-67
2021/12/08 01:18:24;;;;;;;27.17;17.05;;;;;;;0.92;68.93;98534.69;5106958;28;20051;-67
2021/12/08 01:21:00;;;;;;;22.73;14.40;;;;;;;0.89;69.00;98535.63;5107204;28;20056;-67
2021/12/08 01:23:32;;;;;;;27.23;16.52;;;;;;;0.78;69.87;98531.63;5106943;28;20141;-67
2021/12/08 01:26:07;;;;;;;26.27;18.15;;;;;;;0.64;69.69;98516.38;5106857;28;20081;-67
2021/12/08 01:28:39;;;;;;;;;;;;;;;0.45;70.73;98512.56;5107697;28;20047;-66
2021/12/08 01:31:11;;;;;;;27.38;17.65;;;;;;;-0.13;70.67;98415.16;5107044;28;19923;-67
2021/12/08 01:33:45;;;;;;;26.40;17.38;;;;;;;-1.44;70.12;98208.69;5106184;28;20085;-66
2021/12/08 01:36:18;;;;;;;25.73;16.30;;;;;;;0.41;70.23;98500.50;5106984;28;20040;-67
2021/12/08 01:38:51;;;;;;;28.75;17.55;;;;;;;0.34;70.21;98502.44;5106649;28;20044;-66
2021/12/08 01:41:24;;;;;;;28.70;18.42;;;;;;;0.21;70.30;98498.47;5106628;28;20040;-67
2021/12/08 01:46:47;;;;;;;26.52;17.20;;;;;;;-0.50;69.99;98379.69;5106549;28;20052;-67
2021/12/08 01:49:21;;;;;;;25.35;16.50;;;;;;;0.30;70.16;98506.03;5106499;28;20085;-67
2021/12/08 01:51:53;;;;;;;29.57;19.03;;;;;;;0.28;70.05;98498.25;5106496;28;20211;-66
2021/12/08 01:54:25;;;;;;;26.67;18.63;;;;;;;0.31;69.63;98499.91;5106650;28;20295;-68
2021/12/08 01:57:00;;;;;;;30.30;18.27;;;;;;;0.33;69.38;98487.69;5105819;28;20086;-66
2021/12/08 01:59:32;;;;;;;31.80;18.83;;;;;;;0.35;69.42;98487.66;5106331;28;20085;-66
2021/12/08 02:02:04;;;;;;;28.65;19.63;;;;;;;0.27;69.20;98474.84;5106224;28;20101;-66
2021/12/08 02:04:38;;;;;;;29.63;19.17;;;;;;;0.31;69.18;98473.84;5106233;28;20291;-66
2021/12/08 02:07:10;;;;;;;31.15;20.25;;;;;;;0.24;69.03;98475.78;5106433;28;20345;-66
2021/12/08 02:09:43;;;;;;;33.38;21.60;;;;;;;0.07;69.00;98470.16;5106068;28;20044;-66
2021/12/08 02:12:15;;;;;;;29.70;20.08;;;;;;;0.01;69.16;98465.13;5105875;28;20067;-67
2021/12/08 02:14:47;;;;;;;29.15;19.27;;;;;;;-0.87;68.81;98322.53;5106238;28;20043;-66
2021/12/08 02:17:19;;;;;;;31.65;20.35;;;;;;;0.13;68.84;98469.16;5106162;28;20101;-66
2021/12/08 02:19:54;;;;;;;28.35;17.63;;;;;;;0.16;68.82;98462.09;5106201;28;20082;-66
2021/12/08 02:22:27;;;;;;;33.58;20.25;;;;;;;0.13;69.02;98456.97;5106167;28;20044;-66
2021/12/08 02:25:00;;;;;;;26.77;18.27;;;;;;;0.17;69.11;98462.97;5105839;28;20349;-67
2021/12/08 02:27:33;;;;;;;31.05;19.15;;;;;;;-4.67;68.56;97642.66;5105799;28;20097;-64
2021/12/08 02:30:14;;;;;;;29.17;19.67;;;;;;;0.16;68.85;98448.22;5105649;28;20044;-64
2021/12/08 02:47:08;;;;;;;29.92;19.38;;;;;;;0.19;69.01;98433.34;5105075;28;20081;-66
2021/12/08 02:49:40;;;;;;;32.22;22.27;;;;;;;0.08;69.67;98431.94;5105514;28;20242;-66
2021/12/08 02:52:14;;;;;;;30.92;19.67;;;;;;;0.05;69.86;98427.66;5105661;28;20249;-66
2021/12/08 02:54:50;;;;;;;29.48;20.42;;;;;;;0.06;69.65;98421.56;5105712;28;20040;-66
2021/12/08 02:57:28;;;;;;;33.03;21.30;;;;;;;0.07;69.89;98422.41;5105569;28;20040;-66
2021/12/08 03:00:00;;;;;;;31.30;19.85;;;;;;;0.10;69.62;98417.97;5105617;28;20069;-66
2021/12/08 03:02:33;;;;;;;34.45;21.00;;;;;;;0.11;69.75;98414.47;5105592;28;20044;-66
2021/12/08 03:05:06;;;;;;;30.38;19.20;;;;;;;0.09;69.77;98405.00;5105522;28;20040;-66
2021/12/08 03:07:38;;;;;;;34.72;21.95;;;;;;;-4.80;69.97;97605.88;5104471;28;20044;-66
2021/12/08 03:10:15;;;;;;;35.80;19.58;;;;;;;-0.07;70.27;98387.19;5105314;28;20044;-66
2021/12/08 03:12:46;;;;;;;33.42;20.38;;;;;;;-0.05;70.18;98390.59;5105062;28;20056;-66
2021/12/08 03:15:17;;;;;;;36.55;23.25;;;;;;;0.01;69.84;98391.31;5105151;28;20363;-66
2021/12/08 03:17:46;;;;;;;34.63;19.50;;;;;;;0.03;69.89;98394.75;5105102;28;20042;-66
2021/12/08 03:20:21;;;;;;;36.28;22.48;;;;;;;0.03;69.92;98395.59;5105432;28;20099;-66
2021/12/08 03:23:00;;;;;;;32.63;21.65;;;;;;;0.04;69.94;98401.66;5105506;28;20208;-66
2021/12/08 03:25:38;;;;;;;39.42;20.85;;;;;;;0.01;70.03;98397.41;5105173;28;20040;-66
2021/12/08 03:28:18;;;;;;;41.55;26.23;;;;;;;-0.34;70.62;98410.50;5105099;28;20044;-66
2021/12/08 03:30:58;;;;;;;41.05;23.02;;;;;;;-5.90;70.57;97455.88;5105127;28;20040;-66
2021/12/08 03:33:31;;;;;;;37.38;23.35;;;;;;;-0.89;71.11;98308.72;5105359;28;20048;-66
2021/12/08 03:36:04;;;;;;;41.65;24.77;;;;;;;-0.41;71.33;98389.84;5105044;28;20086;-65
2021/12/08 03:38:39;;;;;;;34.15;23.33;;;;;;;-0.48;71.67;98385.69;5104900;28;20090;-65
2021/12/08 03:41:12;;;;;;;33.70;21.17;;;;;;;-0.50;71.58;98382.28;5105260;28;20051;-66
2021/12/08 03:43:44;;;;;;;33.13;21.60;;;;;;;-0.42;71.50;98380.34;5105335;28;20089;-66
2021/12/08 03:46:18;;;;;;;42.25;23.05;;;;;;;-0.32;71.27;98382.69;5105038;28;20082;-66
2021/12/08 03:48:51;;;;;;;35.03;20.50;;;;;;;-0.29;71.00;98386.06;5105007;28;20192;-66
2021/12/08 03:51:23;;;;;;;38.45;23.90;;;;;;;-0.37;71.56;98395.84;5105001;28;20250;-66
2021/12/08 03:53:55;;;;;;;38.95;24.50;;;;;;;-2.19;71.50;98098.03;5105296;28;20291;-65
2021/12/08 03:56:29;;;;;;;38.80;22.63;;;;;;;-0.49;71.66;98393.56;5105585;28;20039;-66
2021/12/08 03:59:01;;;;;;;34.70;20.45;;;;;;;-0.43;71.30;98391.63;5108827;28;20040;-65
2021/12/08 04:01:34;;;;;;;35.30;20.98;;;;;;;-0.32;70.88;98382.69;5108886;28;20039;-66
2021/12/08 04:04:08;;;;;;;40.33;23.30;;;;;;;-0.30;70.76;98376.53;5108838;28;20058;-66
2021/12/08 04:06:46;;;;;;;36.67;23.08;;;;;;;-0.25;70.67;98373.81;5108575;28;20040;-66
2021/12/08 04:09:27;;;;;;;40.88;25.38;;;;;;;-0.58;70.59;98320.91;5108421;28;20240;-66
2021/12/08 04:12:01;;;;;;;36.50;21.88;;;;;;;-0.31;70.79;98374.84;5108422;28;20246;-67
2021/12/08 04:14:37;;;;;;;40.00;23.27;;;;;;;-0.28;70.72;98368.69;5108383;28;20040;-66
2021/12/08 04:17:13;;;;;;;39.78;24.50;;;;;;;-0.53;71.25;98364.16;5108377;28;20208;-65
2021/12/08 04:19:47;;;;;;;41.33;24.15;;;;;;;-0.62;71.65;98358.31;5108488;28;20044;-66
2021/12/08 04:22:23;;;;;;;39.42;24.17;;;;;;;-0.75;71.94;98526.91;5108559;28;20044;-66
2021/12/08 04:24:57;;;;;;;43.40;24.00;;;;;;;-2.15;72.24;98138.59;5108489;28;20040;-66
2021/12/08 04:27:34;;;;;;;41.10;23.70;;;;;;;-0.79;71.87;98348.34;5108162;28;20082;-66
2021/12/08 04:30:13;;;;;;;39.85;24.15;;;;;;;-2.19;71.57;98133.50;5108132;28;20049;-66
2021/12/08 04:32:45;;;;;;;36.13;22.88;;;;;;;-0.72;71.56;98342.97;5108010;28;20044;-66
2021/12/08 04:35:18;;;;;;;38.15;23.55;;;;;;;-0.76;71.60;98343.06;5108231;28;20048;-65
2021/12/08 04:37:50;;;;;;;33.97;20.30;;;;;;;-0.76;71.64;98343.06;5107611;28;20063;-66
2021/12/08 04:40:30;;;;;;;37.22;23.13;;;;;;;-0.77;71.57;98338.75;5107761;28;20040;-66
2021/12/08 04:43:14;;;;;;;38.42;23.35;;;;;;;-0.75;71.75;98332.63;5108033;28;20040;-66
2021/12/08 04:45:59;;;;;;;40.55;24.13;;;;;;;-0.75;71.47;98337.84;5107980;28;20040;-65
2021/12/08 04:48:49;;;;;;;39.00;24.45;;;;;;;-0.83;71.81;98344.13;5107713;28;20349;-66
2021/12/08 04:51:42;;;;;;;40.25;23.00;;;;;;;-0.90;71.83;98347.78;5107675;28;20040;-66
2021/12/08 05:00:40;;;;;;;36.15;22.13;;;;;;;-2.91;71.98;98027.94;5107642;28;20296;-66
2021/12/08 05:03:40;;;;;;;45.13;24.23;;;;;;;-1.08;73.09;98347.31;5107430;28;20097;-66
2021/12/08 05:06:22;;;;;;;40.58;23.70;;;;;;;-1.16;73.14;98349.25;5107341;28;20044;-66
2021/12/08 05:08:57;;;;;;;45.20;25.63;;;;;;;-1.18;73.30;98339.75;5106635;28;20350;-66
2021/12/08 05:11:34;;;;;;;37.90;24.02;;;;;;;-1.17;73.52;98342.34;5107249;28;20292;-66
2021/12/08 05:14:11;;;;;;;43.67;23.75;;;;;;;-1.24;73.74;98339.91;5107006;28;20074;-66
2021/12/08 05:16:49;;;;;;;41.47;23.33;;;;;;;-1.25;73.81;98331.25;5107153;28;20040;-66
2021/12/08 05:19:25;;;;;;;46.72;25.27;;;;;;;-1.24;73.46;98317.38;5107252;28;20057;-66
2021/12/08 05:22:01;;;;;;;42.95;26.75;;;;;;;-1.27;73.67;98311.38;5107027;28;20235;-66
2021/12/08 05:24:37;;;;;;;42.28;25.20;;;;;;;-1.19;73.80;98304.25;5107271;28;20349;-66
2021/12/08 05:27:12;;;;;;;40.55;23.88;;;;;;;-1.13;73.16;98302.38;5107283;28;20040;-66
2021/12/08 05:29:49;;;;;;;37.67;23.25;;;;;;;-1.12;73.02;98301.47;5107177;28;20095;-64
2021/12/08 05:32:23;;;;;;;40.40;23.13;;;;;;;-1.11;73.13;98303.19;5106636;28;20044;-65
2021/12/08 05:34:55;;;;;;;36.65;23.48;;;;;;;-1.27;73.73;98309.66;5107031;28;20043;-66
2021/12/08 05:37:28;;;;;;;40.75;23.52;;;;;;;-1.30;73.36;98304.53;5106769;28;20040;-66
2021/12/08 05:40:00;;;;;;;32.55;20.50;;;;;;;-1.59;73.30;98244.59;5106888;28;20051;-66
2021/12/08 05:42:36;;;;;;;38.60;20.88;;;;;;;-1.28;73.42;98299.28;5106693;28;20089;-66
2021/12/08 05:45:13;;;;;;;35.50;21.67;;;;;;;-1.34;73.88;98298.53;5106880;28;20290;-66
2021/12/08 05:47:50;;;;;;;31.80;20.30;;;;;;;-1.36;73.88;98286.47;5106528;28;20048;-65
2021/12/08 05:50:27;;;;;;;33.45;20.48;;;;;;;-1.33;73.98;98278.59;5106740;28;20044;-66
2021/12/08 05:52:56;;;;;;;35.08;22.15;;;;;;;-1.43;73.70;98275.38;5106744;28;20040;-66
2021/12/08 05:55:26;;;;;;;33.30;19.13;;;;;;;-1.33;73.19;98274.25;5106366;28;20077;-66
2021/12/08 05:57:58;;;;;;;35.50;20.45;;;;;;;-1.27;73.20;98282.78;5106365;28;20059;-66
2021/12/08 06:00:30;;;;;;;34.13;21.23;;;;;;;-1.25;72.92;98271.47;5106474;28;20288;-66
2021/12/08 06:03:04;;;;;;;36.90;23.33;;;;;;;-1.24;73.04;98269.72;5106461;28;20085;-66
2021/12/08 06:05:36;;;;;;;33.20;20.08;;;;;;;-1.26;73.09;98269.75;5105406;28;20315;-66
2021/12/08 06:08:08;;;;;;;35.65;22.02;;;;;;;-1.22;73.02;98267.94;5106374;28;20043;-66
2021/12/08 06:10:42;;;;;;;34.05;19.83;;;;;;;-1.20;73.01;98267.00;5106063;28;20048;-66
2021/12/08 06:13:16;;;;;;;34.92;21.17;;;;;;;-1.19;72.68;98270.47;5105818;28;20117;-66
2021/12/08 06:15:49;;;;;;;34.38;20.80;;;;;;;-1.15;72.53;98264.28;5106455;28;20036;-66
2021/12/08 06:18:26;;;;;;;29.23;18.05;;;;;;;-1.15;72.42;98254.75;5106004;28;20039;-65
2021/12/08 06:20:59;;;;;;;29.60;17.92;;;;;;;-2.89;72.49;97959.63;5105164;28;20297;-66
2021/12/08 06:23:33;;;;;;;34.05;19.77;;;;;;;-1.16;72.68;98254.78;5105813;28;20081;-66
2021/12/08 06:26:06;;;;;;;36.00;21.25;;;;;;;-1.17;72.48;98253.06;5105841;28;20292;-66
2021/12/08 06:28:38;;;;;;;36.75;21.08;;;;;;;-1.19;72.80;98237.50;5105818;28;20044;-66
2021/12/08 06:31:13;;;;;;;33.83;19.42;;;;;;;-1.18;72.64;98231.41;5104987;28;20204;-65
2021/12/08 06:33:47;;;;;;;35.25;20.48;;;;;;;-1.16;72.65;98240.03;5105766;28;20039;-66
2021/12/08 06:36:24;;;;;;;33.72;19.58;;;;;;;-2.85;72.09;97947.44;5105701;28;20047;-66
2021/12/08 06:38:57;;;;;;;29.38;17.25;;;;;;;-2.22;72.21;98037.53;5105948;28;20051;-66
2021/12/08 06:41:32;;;;;;;32.15;19.63;;;;;;;-1.10;72.17;98232.06;5105720;28;20040;-66
2021/12/08 06:44:07;;;;;;;32.92;19.38;;;;;;;-1.14;72.55;98229.59;5105852;28;20059;-67
2021/12/08 06:46:44;;;;;;;;;;;;;;;-1.21;72.76;98225.44;5105916;28;20040;-66
2021/12/08 06:49:21;;;;;;;29.60;15.85;;;;;;;-1.23;72.90;98219.44;5105438;28;19927;-66
2021/12/08 06:51:57;;;;;;;26.75;17.20;;;;;;;-1.21;72.76;98226.31;5105730;28;20068;-66
2021/12/08 06:54:35;;;;;;;26.75;17.25;;;;;;;-1.47;73.03;98184.53;5105773;28;20039;-65
2021/12/08 06:57:20;;;;;;;25.33;16.98;;;;;;;-1.65;72.55;98144.28;5105639;28;20059;-65
2021/12/08 06:59:58;;;;;;;26.42;16.27;;;;;;;-1.15;72.67;98215.75;5105423;28;20040;-66
2021/12/08 07:02:51;;;;;;;24.52;16.80;;;;;;;-1.13;72.21;98216.56;5105444;28;20040;-66
2021/12/08 07:05:42;;;;;;;27.02;17.40;;;;;;;-1.15;72.49;98215.75;5105642;28;20047;-66
2021/12/08 07:08:14;;;;;;;24.40;16.25;;;;;;;-1.16;72.48;98223.59;5105318;28;20051;-66
2021/12/08 07:10:49;;;;;;;27.40;16.80;;;;;;;-1.18;72.56;98214.97;5105327;28;20045;-66
2021/12/08 07:13:25;;;;;;;23.95;15.30;;;;;;;-1.15;72.59;98215.75;5105195;28;20067;-65
2021/12/08 07:16:00;;;;;;;26.30;17.08;;;;;;;-1.17;72.41;98208.88;5105509;28;20047;-65
2021/12/08 07:18:39;;;;;;;25.45;16.27;;;;;;;-1.15;72.38;98213.13;5105531;28;20192;-66
2021/12/08 07:21:14;;;;;;;24.48;15.60;;;;;;;-1.17;72.71;98224.47;5105319;28;20040;-66
2021/12/08 07:23:51;;;;;;;29.55;18.08;;;;;;;-1.25;72.61;98224.69;5105164;28;20289;-66
2021/12/08 07:26:27;;;;;;;24.35;15.50;;;;;;;-1.22;72.95;98221.16;5105432;28;20059;-66
2021/12/08 07:29:01;;;;;;;22.52;14.65;;;;;;;-1.21;72.89;98228.06;5105343;28;20043;-65
2021/12/08 07:31:37;;;;;;;22.55;14.90;;;;;;;-1.15;72.32;98225.28;5105777;28;20051;-65
2021/12/08 07:34:17;;;;;;;21.70;17.27;;;;;;;-1.20;72.14;98219.34;5109223;28;20040;-65
2021/12/08 07:36:55;;;;;;;23.55;16.42;;;;;;;-1.20;72.60;98228.00;5109378;28;20039;-66
2021/12/08 07:39:30;;;;;;;25.17;16.13;;;;;;;-1.45;72.58;98174.94;5109300;28;20047;-65
2021/12/08 07:42:09;;;;;;;19.95;14.93;;;;;;;-1.16;72.33;98206.22;5109041;28;20296;-66
2021/12/08 07:44:41;;;;;;;25.63;16.13;;;;;;;-1.04;72.29;98393.16;5109109;28;20059;-66
2021/12/08 07:47:19;;;;;;;29.98;19.08;;;;;;;-0.89;71.70;98207.28;5108842;28;20276;-65
2021/12/08 07:49:55;;;;;;;24.73;15.55;;;;;;;-0.76;71.37;98198.22;5109104;28;20044;-65
2021/12/08 07:52:33;;;;;;;24.70;16.38;;;;;;;-0.60;71.09;98197.78;5108172;28;20044;-66
2021/12/08 07:55:08;;;;;;;21.75;16.70;;;;;;;-0.45;70.76;98202.56;5108733;28;20044;-66
2021/12/08 07:57:41;;;;;;;25.15;15.90;;;;;;;-0.31;70.24;98463.38;5108422;28;20044;-66
2021/12/08 08:00:18;;;;;;;28.70;16.63;;;;;;;-1.33;69.76;98022.13;5108650;28;20044;-66
2021/12/08 08:02:51;;;;;;;22.73;16.20;;;;;;;-0.01;69.51;98182.13;5107754;28;20247;-66
2021/12/08 08:05:28;;;;;;;23.20;15.32;;;;;;;0.11;69.12;98185.19;5108595;28;20040;-66
2021/12/08 08:08:02;;;;;;;22.58;15.73;;;;;;;0.05;68.53;98140.25;5108745;28;20036;-66
2021/12/08 08:10:41;;;;;;;25.02;15.88;;;;;;;0.28;68.13;98189.88;5108446;28;20044;-66
2021/12/08 08:13:16;;;;;;;21.90;17.13;;;;;;;-0.19;68.10;98102.81;5108221;28;20323;-66
2021/12/08 08:15:53;;;;;;;21.63;15.45;;;;;;;-1.57;67.46;97834.91;5108677;28;20093;-66
2021/12/08 08:18:29;;;;;;;24.73;15.13;;;;;;;-4.02;66.79;97389.28;5108630;28;20040;-66
2021/12/08 08:21:05;;;;;;;24.40;15.38;;;;;;;0.57;66.92;98165.44;5108393;28;20235;-66
2021/12/08 08:23:39;;;;;;;24.40;15.18;;;;;;;-0.78;66.76;97932.06;5108143;28;20086;-66
2021/12/08 08:26:13;;;;;;;21.55;15.32;;;;;;;0.52;66.83;98152.56;5107990;28;20246;-66
2021/12/08 08:28:50;;;;;;;22.58;14.82;;;;;;;0.60;66.66;98149.69;5108060;28;20346;-66
2021/12/08 08:31:28;;;;;;;20.60;15.13;;;;;;;0.38;66.44;98104.41;5108005;28;20044;-66
2021/12/08 08:34:01;;;;;;;21.50;14.93;;;;;;;0.60;66.74;98144.47;5108153;28;20288;-66
2021/12/08 08:36:38;;;;;;;17.75;13.07;;;;;;;0.70;66.36;98148.47;5108176;28;20101;-66
2021/12/08 08:39:16;;;;;;;23.50;15.02;;;;;;;0.79;65.99;98150.75;5107932;28;20040;-66
2021/12/08 08:42:05;;;;;;;22.98;14.80;;;;;;;0.82;65.78;98150.66;5108129;28;20058;-66
2021/12/08 08:44:45;;;;;;;22.30;15.27;;;;;;;0.85;65.65;98142.72;5108022;28;20162;-66
2021/12/08 08:47:21;;;;;;;21.35;14.35;;;;;;;1.00;65.46;98138.72;5107123;28;20040;-66
2021/12/08 08:49:53;;;;;;;20.98;14.68;;;;;;;1.02;65.60;98136.06;5107980;28;20048;-66
2021/12/08 08:52:31;;;;;;;21.65;16.73;;;;;;;-3.53;64.73;97357.66;5106918;28;20085;-66
2021/12/08 08:55:10;;;;;;;23.30;15.45;;;;;;;1.26;64.58;98127.31;5107064;28;20040;-66
2021/12/08 08:57:44;;;;;;;25.10;15.82;;;;;;;1.40;64.70;98130.28;5107902;28;20036;-66
2021/12/08 09:00:25;;;;;;;22.30;16.13;;;;;;;1.44;64.00;98117.94;5107495;28;20044;-66
2021/12/08 09:03:00;;;;;;;26.77;18.00;;;;;;;1.41;64.02;98131.13;5107648;28;20086;-65
2021/12/08 09:05:33;;;;;;;23.13;17.27;;;;;;;1.52;63.76;98129.81;5107591;28;20052;-65
2021/12/08 09:08:06;;;;;;;21.73;13.98;;;;;;;-3.45;63.31;97297.84;5107539;28;20292;-66
2021/12/08 09:10:42;;;;;;;25.42;16.80;;;;;;;0.32;63.51;97954.31;5107539;28;20103;-65
2021/12/08 09:13:19;;;;;;;23.80;15.60;;;;;;;1.23;63.86;98117.00;5106203;28;20056;-65
2021/12/08 09:15:55;;;;;;;23.10;15.88;;;;;;;1.22;63.70;98115.28;5107316;28;20040;-66
2021/12/08 09:18:37;;;;;;;24.15;16.10;;;;;;;1.18;63.84;98100.66;5107350;28;20104;-65
2021/12/08 09:21:14;;;;;;;22.73;16.58;;;;;;;1.37;64.09;98096.44;5107329;28;20089;-66
2021/12/08 09:23:56;;;;;;;22.52;16.33;;;;;;;1.60;63.20;98090.38;5106900;28;20047;-65
2021/12/08 09:26:34;;;;;;;23.63;14.25;;;;;;;1.87;63.18;98099.72;5106204;28;20313;-66
2021/12/08 09:29:12;;;;;;;22.45;15.75;;;;;;;1.84;62.57;98085.94;5106190;28;20099;-65
2021/12/08 09:31:49;;;;;;;20.85;14.75;;;;;;;1.93;62.55;98072.50;5106662;28;20040;-65
2021/12/08 09:34:25;;;;;;;21.27;14.27;;;;;;;1.82;62.24;98028.53;5106447;28;20040;-65
2021/12/08 09:37:03;;;;;;;18.75;14.23;;;;;;;2.34;61.70;98062.09;5106781;28;20062;-65
2021/12/08 09:39:39;;;;;;;22.52;14.93;;;;;;;2.52;60.78;98061.28;5106424;28;20040;-65
2021/12/08 09:42:18;;;;;;;22.48;15.77;;;;;;;2.51;60.77;98056.97;5106569;28;20052;-65
2021/12/08 09:44:53;;;;;;;21.73;15.93;;;;;;;2.50;60.60;98058.75;5106706;28;20044;-65
2021/12/08 09:47:29;;;;;;;18.60;13.45;;;;;;;2.28;60.56;98051.88;5106455;28;20044;-65
2021/12/08 09:50:05;;;;;;;20.95;13.80;;;;;;;1.72;61.14;97924.47;5106281;28;20050;-65
2021/12/08 09:52:38;;;;;;;23.33;14.85;;;;;;;2.72;60.84;98044.72;5106470;28;20048;-65
2021/12/08 09:55:13;;;;;;;20.20;13.80;;;;;;;2.68;59.62;98041.41;5105850;28;20040;-65
2021/12/08 09:57:48;;;;;;;18.33;14.50;;;;;;;2.63;60.24;98037.28;5106372;28;20052;-65
2021/12/08 10:00:23;;;;;;;;;;;;;;;2.73;59.85;98449.34;5106942;28;20052;-65
2021/12/08 10:02:58;;;;;;;17.88;13.27;;;;;;;2.93;60.59;98032.44;5106312;28;19938;-66
2021/12/08 10:05:32;;;;;;;18.90;13.05;;;;;;;2.77;60.03;97985.19;5106559;28;20044;-66
2021/12/08 10:08:01;;;;;;;19.00;14.02;;;;;;;2.96;59.47;98027.06;5106216;28;20292;-66
2021/12/08 10:10:32;;;;;;;20.17;13.77;;;;;;;2.82;60.07;98019.84;5106273;28;20090;-65
2021/12/08 10:13:03;;;;;;;20.30;15.02;;;;;;;2.86;60.17;98009.19;5106040;28;20115;-65
2021/12/08 10:15:32;;;;;;;18.13;13.25;;;;;;;2.84;59.91;98015.41;5106309;28;20052;-65
2021/12/08 10:18:02;;;;;;;18.88;13.20;;;;;;;3.01;59.57;98005.00;5106275;28;20310;-65
2021/12/08 10:20:35;;;;;;;20.95;14.70;;;;;;;3.07;59.03;98001.25;5105804;28;20091;-66
2021/12/08 10:23:22;;;;;;;20.25;13.60;;;;;;;3.24;58.62;98009.19;5105501;28;20056;-66
2021/12/08 10:25:57;;;;;;;17.60;13.05;;;;;;;3.35;58.38;97996.44;5106234;28;20312;-66
2021/12/08 10:28:34;;;;;;;19.02;14.32;;;;;;;3.34;58.77;97996.50;5106022;28;20355;-66
2021/12/08 10:31:09;;;;;;;19.80;14.32;;;;;;;3.50;58.29;97992.22;5105780;28;20342;-66
2021/12/08 10:34:01;;;;;;;17.17;12.80;;;;;;;3.58;57.19;97992.69;5105678;28;20036;-67
2021/12/08 10:36:46;;;;;;;17.08;13.40;;;;;;;3.62;57.42;97986.38;5105866;28;20056;-66
2021/12/08 10:39:28;;;;;;;16.45;12.27;;;;;;;3.58;56.87;97989.22;5105858;28;20100;-67
2021/12/08 10:42:11;;;;;;;20.38;13.73;;;;;;;3.76;57.04;97983.94;5105497;28;20069;-66
2021/12/08 10:44:50;;;;;;;18.10;12.82;;;;;;;3.85;56.87;97985.25;5105832;28;20040;-66
2021/12/08 10:47:24;;;;;;;17.73;12.18;;;;;;;3.93;56.88;97970.00;5105723;28;20040;-66
2021/12/08 10:55:40;;;;;;;16.50;12.63;;;;;;;3.91;56.69;97944.78;5105645;28;20050;-66
2021/12/08 10:58:22;;;;;;;16.52;10.75;;;;;;;3.75;55.92;97944.72;5105811;28;20043;-66
2021/12/08 11:00:58;;;;;;;16.00;11.77;;;;;;;3.48;57.03;97950.38;5105433;28;20353;-66
2021/12/08 11:03:32;;;;;;;14.07;11.30;;;;;;;2.74;57.42;97847.53;5105731;28;20043;-66
2021/12/08 11:06:05;;;;;;;12.18;9.13;;;;;;;3.74;57.65;97951.72;5105380;28;20044;-67
2021/12/08 11:08:39;;;;;;;13.95;10.60;;;;;;;-0.62;57.47;97179.63;5109738;28;20048;-66
2021/12/08 11:11:18;;;;;;;15.50;10.80;;;;;;;4.15;56.90;97941.75;5109764;28;20105;-66
2021/12/08 11:13:53;;;;;;;14.02;11.60;;;;;;;1.77;55.41;97554.25;5109188;28;20101;-66
2021/12/08 11:16:29;;;;;;;14.32;9.50;;;;;;;4.07;55.68;97925.56;5109444;28;20086;-66
2021/12/08 11:19:04;;;;;;;12.73;9.45;;;;;;;4.26;56.39;97927.28;5109638;28;20097;-66
2021/12/08 11:21:40;;;;;;;16.20;10.27;;;;;;;4.24;55.05;97929.97;5108460;28;20044;-65
2021/12/08 11:24:14;;;;;;;16.20;11.90;;;;;;;4.12;54.86;97938.44;5109208;28;20040;-66
2021/12/08 11:26:50;;;;;;;13.80;9.23;;;;;;;4.08;54.84;97929.03;5109528;28;20043;-66
2021/12/08 11:29:24;;;;;;;12.88;9.15;;;;;;;4.07;55.47;97932.59;5108707;28;20032;-66
2021/12/08 11:32:00;;;;;;;12.20;9.48;;;;;;;4.08;55.59;97927.28;5108481;28;20039;-66
2021/12/08 11:34:36;;;;;;;12.18;9.55;;;;;;;3.98;55.60;97939.16;5109356;28;20062;-65
2021/12/08 11:37:12;;;;;;;12.82;9.75;;;;;;;3.79;56.56;97923.50;5109007;28;20036;-65
2021/12/08 11:39:47;;;;;;;12.65;9.43;;;;;;;3.49;56.04;97933.75;5109037;28;20097;-65
2021/12/08 11:42:24;;;;;;;14.48;10.57;;;;;;;3.30;56.45;97932.09;5109072;28;20342;-65
2021/12/08 11:44:59;;;;;;;12.80;9.52;;;;;;;2.72;56.66;97859.84;5109278;28;20036;-66
2021/12/08 11:47:35;;;;;;;10.50;8.45;;;;;;;3.16;57.44;97923.13;5109214;28;20040;-66
2021/12/08 11:50:10;;;;;;;12.93;9.70;;;;;;;2.64;57.51;97833.19;5108650;28;20044;-65
2021/12/08 11:52:45;;;;;;;12.77;8.75;;;;;;;3.19;56.84;97916.91;5109005;28;20047;-65
2021/12/08 11:55:19;;;;;;;9.82;8.40;;;;;;;3.11;56.91;97922.50;5109058;28;20247;-65
2021/12/08 11:57:55;;;;;;;12.47;9.27;;;;;;;2.87;57.76;97906.19;5107967;28;20046;-65
2021/12/08 12:00:31;;;;;;;12.18;9.18;;;;;;;2.86;58.03;97925.44;5108903;28;20082;-65
2021/12/08 12:03:07;;;;;;;15.50;10.30;;;;;;;2.93;58.16;97904.22;5108790;28;20056;-66
2021/12/08 12:05:40;;;;;;;13.93;8.85;;;;;;;3.11;58.13;97896.34;5108816;28;20044;-65
2021/12/08 12:08:11;;;;;;;12.52;7.90;;;;;;;3.24;57.17;97885.25;5108786;28;20044;-65
2021/12/08 12:10:48;;;;;;;11.77;8.80;;;;;;;3.11;57.13;97898.09;5108501;28;20074;-65
2021/12/08 12:13:20;;;;;;;12.45;10.30;;;;;;;2.98;57.57;97902.22;5108138;28;20063;-65
2021/12/08 12:15:53;;;;;;;12.93;9.85;;;;;;;2.98;58.00;97879.53;5109199;28;20047;-65
2021/12/08 12:18:34;;;;;;;13.32;8.93;;;;;;;2.95;58.05;97879.66;5107773;28;20040;-66
2021/12/08 12:21:15;;;;;;;12.43;8.35;;;;;;;2.89;58.00;97879.97;5108241;28;20296;-66
2021/12/08 12:23:57;;;;;;;11.85;8.60;;;;;;;2.67;58.61;97887.97;5108428;28;20048;-66
2021/12/08 12:26:43;;;;;;;10.30;7.85;;;;;;;2.69;59.02;97901.84;5108501;28;20086;-66
2021/12/08 12:29:28;;;;;;;10.90;8.05;;;;;;;2.66;59.02;97888.03;5108278;28;20117;-66
2021/12/08 12:32:06;;;;;;;10.02;7.38;;;;;;;2.57;59.23;97893.72;5108256;28;20098;-65
2021/12/08 12:34:40;;;;;;;11.25;7.53;;;;;;;0.90;59.39;97633.91;5108003;28;20153;-66